CheckWX is a tool to help pilots better visualize weather data.  It is not intended as a substitute for an official pre-flight weather briefing.

17:22:57 UTC

VTCC TAF
Chiang Mai International Airport
Chiang Mai, Thailand
TAF VTCC 281100Z 2812/2918 21005KT 9999 BKN035 TEMPO 2813/2815 22015G30KT 3000 TSRA FEW025CB BKN030 TEMPO 2907/2911 25015G30KT 3000 TSRA FEW025CB BKN030

May-28@
12:00 UTC

May-28 @ 12:00 UTC

May-29@
18:00 UTC

May-29 @ 18:00 UTC

TAF VTCC 281100Z 2812/2918 21005KT 9999 BKN035
Wind
  • 210° at 5 KTS
Cloud Levels
  • Broken at 3,500' AGL

May-28@
13:00 UTC

May-28 @ 13:00 UTC

May-28@
15:00 UTC

May-28 @ 15:00 UTC

TEMPO 2813/2815 22015G30KT 3000 TSRA FEW025CB BKN030

Expired

Wind
  • 220° at 15 KTS
  • {Gusting to 30 KTS
Conditions
Thunderstorm, Rain
Cloud Levels
  • Few at 2,500' AGL
  • Broken at 3,000' AGL

May-29@
07:00 UTC

May-29 @ 07:00 UTC

May-29@
11:00 UTC

May-29 @ 11:00 UTC

TEMPO 2907/2911 25015G30KT 3000 TSRA FEW025CB BKN030

Expired

Wind
  • 250° at 15 KTS
  • {Gusting to 30 KTS
Conditions
Thunderstorm, Rain
Cloud Levels
  • Few at 2,500' AGL
  • Broken at 3,000' AGL